createdAt,value
2023-05-24T00:01:37.983Z,9.20
2023-05-24T00:04:06.095Z,9.70
2023-05-24T00:06:35.192Z,10.90
2023-05-24T00:09:04.528Z,11.00
2023-05-24T00:11:32.662Z,11.10
2023-05-24T00:14:00.842Z,11.20
2023-05-24T00:16:28.912Z,10.20
2023-05-24T00:18:58.482Z,10.70
2023-05-24T00:21:26.715Z,10.30
2023-05-24T00:23:54.622Z,10.80
2023-05-24T00:26:22.917Z,11.00
2023-05-24T00:28:54.392Z,10.50
2023-05-24T00:31:22.371Z,9.60
2023-05-24T00:33:50.384Z,11.30
2023-05-24T00:36:20.007Z,10.40
2023-05-24T00:38:49.281Z,12.00
2023-05-24T00:41:17.488Z,11.00
2023-05-24T00:43:45.490Z,11.10
2023-05-24T00:46:20.685Z,11.60
2023-05-24T00:48:49.711Z,13.10
2023-05-24T00:51:18.865Z,10.80
2023-05-24T00:53:48.199Z,10.70
2023-05-24T00:56:17.319Z,10.80
2023-05-24T00:58:45.893Z,12.30
2023-05-24T01:01:14.554Z,23.80
2023-05-24T01:03:43.655Z,14.60
2023-05-24T01:06:13.321Z,11.70
2023-05-24T01:09:19.041Z,11.10
2023-05-24T01:12:16.320Z,10.80
2023-05-24T01:15:12.123Z,10.30
2023-05-24T01:17:50.620Z,10.00
2023-05-24T01:20:18.739Z,10.40
2023-05-24T01:22:53.016Z,12.40
2023-05-24T01:26:18.781Z,12.30
2023-05-24T01:28:48.038Z,16.90
2023-05-24T01:31:17.000Z,14.20
2023-05-24T01:33:45.269Z,12.40
2023-05-24T01:36:13.243Z,12.20
2023-05-24T01:38:41.333Z,12.40
2023-05-24T01:41:16.309Z,12.20
2023-05-24T01:43:53.082Z,14.00
2023-05-24T01:46:27.382Z,14.70
2023-05-24T01:49:07.560Z,13.20
2023-05-24T01:51:40.394Z,12.00
2023-05-24T01:54:08.551Z,13.30
2023-05-24T01:56:36.617Z,13.20
2023-05-24T01:59:04.703Z,11.40
2023-05-24T02:01:32.716Z,11.70
2023-05-24T02:04:00.716Z,12.00
2023-05-24T02:06:28.656Z,12.50
2023-05-24T02:08:56.816Z,12.60
2023-05-24T02:11:24.769Z,12.10
2023-05-24T02:13:53.798Z,16.80
2023-05-24T02:16:23.963Z,13.90
2023-05-24T02:18:52.195Z,21.40
2023-05-24T02:21:20.143Z,14.50
2023-05-24T02:23:48.417Z,13.40
2023-05-24T02:26:17.863Z,13.90
2023-05-24T02:28:45.939Z,11.90
2023-05-24T02:31:14.095Z,12.90
2023-05-24T02:33:42.282Z,13.40
2023-05-24T02:36:10.395Z,10.60
2023-05-24T02:38:38.487Z,12.10
2023-05-24T02:41:06.502Z,12.30
2023-05-24T02:43:34.536Z,13.00
2023-05-24T02:46:02.762Z,14.20
2023-05-24T02:48:30.755Z,18.00
2023-05-24T02:50:58.760Z,13.10
2023-05-24T02:53:26.742Z,12.20
2023-05-24T02:55:54.672Z,13.20
2023-05-24T02:58:23.186Z,12.50
2023-05-24T03:00:51.384Z,10.90
2023-05-24T03:03:20.312Z,9.90
2023-05-24T03:05:48.618Z,11.00
2023-05-24T03:08:16.911Z,11.00
2023-05-24T03:10:45.060Z,10.40
2023-05-24T03:13:13.480Z,11.30
2023-05-24T03:15:41.540Z,11.20
2023-05-24T03:18:09.756Z,10.90
2023-05-24T03:20:38.145Z,10.90
2023-05-24T03:23:09.994Z,8.20
2023-05-24T03:25:38.131Z,9.00
2023-05-24T03:28:07.233Z,8.80
2023-05-24T03:30:35.699Z,9.20
2023-05-24T03:33:03.871Z,8.00
2023-05-24T03:35:32.503Z,9.40
2023-05-24T03:38:00.574Z,9.60
2023-05-24T03:40:32.477Z,8.70
2023-05-24T03:43:07.672Z,8.70
2023-05-24T03:45:43.831Z,8.20
2023-05-24T03:48:11.773Z,8.60
2023-05-24T03:50:39.941Z,8.40
2023-05-24T03:53:08.090Z,6.80
2023-05-24T03:55:36.218Z,8.70
2023-05-24T03:58:04.488Z,7.40
2023-05-24T04:00:32.567Z,7.30
2023-05-24T04:03:01.873Z,6.30
2023-05-24T04:05:30.218Z,7.60
2023-05-24T04:07:58.459Z,8.50
2023-05-24T04:10:26.564Z,8.00
2023-05-24T04:12:57.584Z,7.20
2023-05-24T04:15:25.597Z,7.90
2023-05-24T04:17:55.372Z,7.40
2023-05-24T04:20:27.924Z,9.30
2023-05-24T04:22:56.439Z,8.80
2023-05-24T04:25:24.780Z,7.80
2023-05-24T04:27:53.639Z,8.80
2023-05-24T04:30:22.330Z,8.50
2023-05-24T04:32:51.668Z,10.20
2023-05-24T04:35:20.529Z,7.80
2023-05-24T04:37:50.488Z,8.50
2023-05-24T04:40:23.119Z,9.00
2023-05-24T04:42:51.205Z,8.70
2023-05-24T04:45:19.179Z,10.60
2023-05-24T04:47:47.307Z,10.50
2023-05-24T04:50:15.378Z,10.50
2023-05-24T04:52:43.347Z,10.00
2023-05-24T04:55:11.532Z,11.20
2023-05-24T04:57:39.703Z,10.40
2023-05-24T05:00:08.303Z,9.00
2023-05-24T05:02:36.552Z,8.30
2023-05-24T05:05:05.739Z,8.30
2023-05-24T05:07:33.801Z,7.70
2023-05-24T05:10:02.502Z,8.10
2023-05-24T05:12:30.638Z,8.30
2023-05-24T05:14:58.684Z,8.70
2023-05-24T05:17:26.754Z,8.50
2023-05-24T05:19:54.807Z,10.90
2023-05-24T05:22:22.841Z,10.90
2023-05-24T05:24:52.052Z,14.20
2023-05-24T05:27:20.100Z,12.50
2023-05-24T05:29:48.086Z,11.80
2023-05-24T05:32:16.402Z,15.30
2023-05-24T05:34:45.072Z,13.20
2023-05-24T05:37:13.280Z,12.70
2023-05-24T05:39:41.343Z,20.40
2023-05-24T05:42:09.442Z,16.20
2023-05-24T05:44:37.618Z,14.50
2023-05-24T05:47:07.490Z,15.30
2023-05-24T05:49:38.476Z,12.70
2023-05-24T05:52:06.643Z,14.30
2023-05-24T05:54:34.675Z,14.10
2023-05-24T05:57:02.741Z,14.00
2023-05-24T05:59:30.979Z,14.50
2023-05-24T06:01:58.871Z,17.80
2023-05-24T06:04:26.956Z,14.60
2023-05-24T06:06:54.970Z,13.80
2023-05-24T06:09:22.934Z,14.90
2023-05-24T06:11:51.088Z,25.20
2023-05-24T06:14:20.639Z,17.40
2023-05-24T06:16:48.784Z,14.80
2023-05-24T06:19:17.195Z,15.10
2023-05-24T06:21:48.496Z,14.00
2023-05-24T06:24:21.495Z,14.70
2023-05-24T06:26:50.955Z,17.50
2023-05-24T06:29:23.035Z,13.70
2023-05-24T06:31:51.440Z,10.90
2023-05-24T06:34:21.715Z,14.10
2023-05-24T06:36:51.504Z,15.00
2023-05-24T06:39:19.868Z,15.50
2023-05-24T06:41:48.364Z,16.00
2023-05-24T06:44:16.580Z,14.70
2023-05-24T06:46:44.876Z,14.80
2023-05-24T06:49:12.992Z,15.40
2023-05-24T06:51:40.963Z,15.20
2023-05-24T06:54:08.963Z,17.50
2023-05-24T06:56:36.991Z,14.90
2023-05-24T06:59:05.011Z,15.30
2023-05-24T07:01:33.371Z,13.10
2023-05-24T07:04:01.414Z,14.70
2023-05-24T07:06:29.460Z,14.60
2023-05-24T07:08:57.497Z,15.60
2023-05-24T07:11:25.728Z,15.30
2023-05-24T07:13:53.786Z,15.30
2023-05-24T07:16:21.917Z,13.50
2023-05-24T07:18:49.967Z,14.90
2023-05-24T07:21:18.018Z,15.60
2023-05-24T07:23:46.189Z,14.00
2023-05-24T07:26:14.598Z,11.90
2023-05-24T07:28:42.756Z,14.30
2023-05-24T07:31:10.898Z,11.90
2023-05-24T07:33:39.098Z,11.80
2023-05-24T07:36:07.367Z,13.40
2023-05-24T07:38:36.271Z,14.00
2023-05-24T07:41:05.108Z,13.20
2023-05-24T07:43:33.105Z,12.00
2023-05-24T07:46:01.290Z,12.90
2023-05-24T07:48:29.369Z,13.50
2023-05-24T07:50:57.464Z,13.10
2023-05-24T07:53:25.495Z,13.10
2023-05-24T07:55:53.599Z,10.40
2023-05-24T07:58:21.693Z,12.50
2023-05-24T08:00:49.811Z,12.50
2023-05-24T08:03:18.026Z,15.00
2023-05-24T08:05:46.331Z,12.50
2023-05-24T08:08:15.813Z,12.40
2023-05-24T08:10:43.865Z,10.80
2023-05-24T08:13:12.435Z,12.40
2023-05-24T08:15:40.676Z,10.20
2023-05-24T08:18:09.701Z,11.80
2023-05-24T08:20:38.984Z,11.50
2023-05-24T08:23:07.138Z,10.30
2023-05-24T08:25:35.036Z,9.60
2023-05-24T08:28:03.006Z,10.20
2023-05-24T08:30:32.428Z,10.30
2023-05-24T08:33:00.645Z,11.20
2023-05-24T08:35:28.962Z,10.50
2023-05-24T08:37:56.908Z,10.20
2023-05-24T08:40:25.155Z,10.70
2023-05-24T08:42:53.390Z,9.40
2023-05-24T08:45:22.007Z,10.80
2023-05-24T08:47:50.526Z,9.60
2023-05-24T08:50:18.703Z,9.20
2023-05-24T08:52:46.818Z,9.60
2023-05-24T08:55:15.157Z,7.70
2023-05-24T08:57:44.066Z,9.30
2023-05-24T09:00:13.084Z,10.00
2023-05-24T09:02:42.874Z,9.00
2023-05-24T09:05:14.562Z,9.20
2023-05-24T09:07:44.173Z,10.00
2023-05-24T09:10:12.176Z,9.00
2023-05-24T09:12:41.029Z,8.30
2023-05-24T09:15:09.668Z,8.30
2023-05-24T09:17:38.588Z,9.10
2023-05-24T09:20:11.188Z,8.50
2023-05-24T09:22:42.250Z,8.90
2023-05-24T09:25:11.513Z,8.10
2023-05-24T09:27:39.628Z,9.10
2023-05-24T09:30:12.800Z,9.30
2023-05-24T09:32:41.504Z,8.80
2023-05-24T09:35:10.784Z,8.10
2023-05-24T09:37:40.500Z,8.40
2023-05-24T09:40:20.751Z,9.40
2023-05-24T09:42:51.802Z,9.20
2023-05-24T09:45:21.512Z,9.10
2023-05-24T09:47:50.078Z,9.20
2023-05-24T09:50:18.221Z,9.10
2023-05-24T09:52:46.574Z,8.10
2023-05-24T09:55:18.556Z,9.10
2023-05-24T09:58:03.268Z,9.60
2023-05-24T10:00:36.668Z,7.80
2023-05-24T10:03:07.592Z,9.70
2023-05-24T10:05:36.015Z,9.90
2023-05-24T10:08:06.981Z,8.90
2023-05-24T10:10:35.242Z,9.00
2023-05-24T10:13:03.571Z,10.50
2023-05-24T10:15:31.699Z,9.80
2023-05-24T10:18:11.344Z,8.80
2023-05-24T10:20:42.226Z,8.80
2023-05-24T10:23:11.343Z,9.70
2023-05-24T10:25:42.350Z,9.40
2023-05-24T10:28:12.578Z,8.70
2023-05-24T10:30:46.850Z,8.70
2023-05-24T10:33:15.354Z,8.50
2023-05-24T10:35:43.552Z,9.20
2023-05-24T10:38:11.840Z,8.40
2023-05-24T10:40:43.966Z,6.90
2023-05-24T10:43:12.118Z,6.50
2023-05-24T10:45:40.957Z,6.30
2023-05-24T10:48:13.543Z,7.90
2023-05-24T10:50:42.548Z,7.70
2023-05-24T10:53:14.644Z,6.20
2023-05-24T10:56:01.277Z,6.40
2023-05-24T10:58:59.629Z,6.20
2023-05-24T11:01:29.559Z,7.20
2023-05-24T11:04:12.250Z,7.90
2023-05-24T11:06:56.463Z,7.80
2023-05-24T11:09:24.777Z,7.60
2023-05-24T11:12:04.364Z,6.10
2023-05-24T11:14:32.594Z,6.80
2023-05-24T11:17:01.123Z,7.90
2023-05-24T11:19:34.279Z,8.90
2023-05-24T11:22:07.639Z,8.70
2023-05-24T11:24:36.597Z,6.50
2023-05-24T11:27:06.445Z,7.50
2023-05-24T11:29:40.971Z,6.40
2023-05-24T11:32:09.367Z,6.90
2023-05-24T11:34:37.929Z,7.80
2023-05-24T11:37:06.377Z,7.70
2023-05-24T11:39:36.058Z,8.30
2023-05-24T11:42:04.938Z,8.20
2023-05-24T11:44:33.056Z,7.20
2023-05-24T11:47:01.911Z,7.40
2023-05-24T11:49:30.130Z,7.40
2023-05-24T11:51:58.782Z,8.10
2023-05-24T11:54:30.316Z,7.30
2023-05-24T11:56:58.419Z,8.60
2023-05-24T11:59:27.761Z,8.50
2023-05-24T12:02:06.070Z,8.40
2023-05-24T12:04:37.165Z,7.80
2023-05-24T12:07:05.804Z,7.80
2023-05-24T12:09:33.913Z,8.30
2023-05-24T12:12:02.584Z,7.00
2023-05-24T12:14:31.588Z,7.30
2023-05-24T12:17:00.005Z,7.20
2023-05-24T12:19:35.911Z,6.90
2023-05-24T12:22:06.698Z,7.50
2023-05-24T12:24:35.607Z,6.20
2023-05-24T12:27:07.850Z,6.60
2023-05-24T12:29:41.862Z,7.60
2023-05-24T12:32:15.084Z,7.20
2023-05-24T12:34:44.213Z,8.00
2023-05-24T12:37:14.064Z,7.30
2023-05-24T12:39:43.875Z,8.10
2023-05-24T12:42:15.269Z,7.00
2023-05-24T12:44:45.251Z,7.50
2023-05-24T12:47:13.577Z,6.80
2023-05-24T12:49:41.926Z,7.90
2023-05-24T12:52:09.880Z,7.00
2023-05-24T12:54:37.970Z,6.10
2023-05-24T12:57:06.363Z,6.80
2023-05-24T12:59:35.169Z,6.60
2023-05-24T13:02:03.360Z,5.80
2023-05-24T13:04:34.039Z,6.80
2023-05-24T13:07:03.434Z,6.70
2023-05-24T13:09:31.764Z,6.60
2023-05-24T13:11:59.745Z,5.70
2023-05-24T13:14:27.924Z,7.30
2023-05-24T13:16:56.219Z,5.90
2023-05-24T13:19:24.305Z,6.90
2023-05-24T13:21:52.725Z,6.60
2023-05-24T13:24:21.651Z,6.90
2023-05-24T13:26:51.570Z,7.10
2023-05-24T13:29:36.676Z,7.10
2023-05-24T13:32:07.927Z,6.30
2023-05-24T13:34:36.616Z,7.30
2023-05-24T13:37:04.865Z,7.30
2023-05-24T13:39:32.871Z,6.30
2023-05-24T13:42:01.788Z,7.60
2023-05-24T13:44:30.858Z,7.30
2023-05-24T13:46:59.043Z,6.90
2023-05-24T13:49:27.898Z,7.60
2023-05-24T13:51:58.206Z,6.10
2023-05-24T13:54:26.818Z,6.60
2023-05-24T13:56:57.710Z,5.90
2023-05-24T13:59:27.349Z,8.10
2023-05-24T14:01:55.717Z,8.40
2023-05-24T14:04:23.918Z,8.30
2023-05-24T14:06:52.476Z,6.90
2023-05-24T14:09:21.553Z,7.20
2023-05-24T14:11:49.754Z,7.90
2023-05-24T14:14:57.135Z,7.10
2023-05-24T14:17:06.050Z,8.60
2023-05-24T14:19:35.020Z,8.30
2023-05-24T14:22:03.105Z,8.50
2023-05-24T14:24:31.170Z,8.10
2023-05-24T14:26:59.203Z,8.70
2023-05-24T14:29:27.860Z,9.50
2023-05-24T14:31:56.065Z,9.70
2023-05-24T14:34:24.301Z,8.60
2023-05-24T14:36:52.312Z,9.70
2023-05-24T14:39:20.575Z,9.60
2023-05-24T14:41:48.601Z,10.10
2023-05-24T14:44:16.681Z,10.50
2023-05-24T14:46:44.683Z,8.20
2023-05-24T14:49:12.867Z,8.10
2023-05-24T14:51:40.959Z,8.70
2023-05-24T14:54:11.220Z,9.70
2023-05-24T14:56:39.240Z,9.00
2023-05-24T14:59:09.870Z,7.00
2023-05-24T15:01:38.008Z,8.90
2023-05-24T15:04:06.270Z,8.20
2023-05-24T15:06:35.638Z,9.20
2023-05-24T15:09:04.007Z,9.10
2023-05-24T15:11:32.011Z,9.10
2023-05-24T15:14:01.157Z,9.90
2023-05-24T15:16:29.464Z,9.60
2023-05-24T15:18:57.756Z,9.20
2023-05-24T15:21:25.797Z,9.20
2023-05-24T15:23:53.845Z,9.70
2023-05-24T15:26:22.891Z,9.10
2023-05-24T15:28:51.356Z,9.40
2023-05-24T15:31:19.602Z,9.30
2023-05-24T15:33:47.584Z,8.80
2023-05-24T15:36:17.398Z,8.60
2023-05-24T15:38:45.491Z,9.20
2023-05-24T15:41:13.526Z,9.40
2023-05-24T15:43:41.563Z,9.00
2023-05-24T15:46:09.579Z,8.90
2023-05-24T15:48:37.671Z,9.50
2023-05-24T15:53:38.803Z,8.70
2023-05-24T15:56:07.428Z,8.90
2023-05-24T15:58:35.388Z,10.10
2023-05-24T16:01:03.615Z,9.20
2023-05-24T16:03:31.834Z,11.40
2023-05-24T16:05:59.964Z,10.30
2023-05-24T16:08:28.677Z,10.60
2023-05-24T16:10:57.164Z,9.80
2023-05-24T16:13:25.823Z,9.10
2023-05-24T16:15:54.091Z,10.30
2023-05-24T16:18:23.121Z,9.50
2023-05-24T16:20:51.779Z,8.90
2023-05-24T16:23:20.388Z,9.50
2023-05-24T16:25:49.491Z,9.50
2023-05-24T16:28:17.852Z,9.90
2023-05-24T16:30:45.937Z,10.90
2023-05-24T16:33:14.007Z,10.20
2023-05-24T16:35:42.052Z,10.20
2023-05-24T16:38:10.116Z,9.70
2023-05-24T16:40:38.262Z,10.10
2023-05-24T16:43:06.238Z,10.50
2023-05-24T16:45:34.345Z,10.90
2023-05-24T16:48:02.591Z,11.00
2023-05-24T16:50:30.799Z,11.10
2023-05-24T16:52:59.059Z,12.10
2023-05-24T16:55:27.097Z,15.30
2023-05-24T16:57:55.082Z,10.90
2023-05-24T17:00:23.697Z,10.70
2023-05-24T17:02:51.802Z,11.00
2023-05-24T17:05:19.888Z,11.20
2023-05-24T17:07:47.858Z,10.70
2023-05-24T17:10:15.866Z,10.90
2023-05-24T17:12:43.913Z,9.70
2023-05-24T17:15:12.248Z,11.10
2023-05-24T17:17:40.909Z,11.70
2023-05-24T17:20:10.132Z,12.10
2023-05-24T17:22:38.121Z,11.40
2023-05-24T17:25:07.138Z,11.70
2023-05-24T17:27:35.272Z,12.20
2023-05-24T17:30:03.582Z,11.20
2023-05-24T17:32:32.124Z,13.20
2023-05-24T17:35:00.259Z,13.00
2023-05-24T17:37:28.309Z,11.20
2023-05-24T17:39:56.500Z,11.70
2023-05-24T17:42:25.451Z,11.30
2023-05-24T17:44:53.597Z,10.40
2023-05-24T17:47:21.830Z,12.00
2023-05-24T17:49:49.851Z,11.30
2023-05-24T17:52:17.868Z,13.90
2023-05-24T17:54:45.989Z,12.00
2023-05-24T17:57:13.937Z,12.00
2023-05-24T17:59:42.226Z,11.10
2023-05-24T18:02:10.465Z,11.40
2023-05-24T18:04:38.617Z,11.20
2023-05-24T18:07:07.134Z,12.60
2023-05-24T18:09:35.230Z,12.40
2023-05-24T18:12:03.413Z,10.00
2023-05-24T18:14:32.294Z,11.40
2023-05-24T18:17:00.498Z,16.80
2023-05-24T18:19:28.499Z,14.40
2023-05-24T18:21:56.560Z,12.30
2023-05-24T18:24:24.582Z,11.40
2023-05-24T18:26:52.597Z,11.70
2023-05-24T18:29:20.682Z,12.40
2023-05-24T18:31:48.789Z,10.20
2023-05-24T18:34:16.918Z,12.80
2023-05-24T18:36:44.940Z,12.30
2023-05-24T18:39:13.016Z,12.70
2023-05-24T18:41:41.110Z,11.40
2023-05-24T18:44:09.102Z,11.80
2023-05-24T18:46:37.344Z,11.80
2023-05-24T18:49:08.428Z,11.70
2023-05-24T18:51:37.827Z,12.50
2023-05-24T18:54:05.924Z,12.70
2023-05-24T18:56:34.040Z,13.90
2023-05-24T18:59:01.990Z,12.40
2023-05-24T19:01:30.035Z,12.10
2023-05-24T19:03:58.160Z,11.80
2023-05-24T19:06:26.244Z,11.70
2023-05-24T19:08:55.685Z,12.60
2023-05-24T19:11:23.743Z,12.80
2023-05-24T19:13:51.702Z,12.80
2023-05-24T19:16:19.822Z,13.30
2023-05-24T19:18:48.001Z,13.00
2023-05-24T19:21:16.376Z,12.90
2023-05-24T19:23:44.433Z,13.20
2023-05-24T19:26:12.795Z,16.80
2023-05-24T19:28:42.317Z,12.90
2023-05-24T19:31:10.509Z,13.50
2023-05-24T19:33:48.546Z,13.30
2023-05-24T19:36:27.192Z,19.30
2023-05-24T19:38:55.477Z,13.20
2023-05-24T19:41:23.469Z,13.80
2023-05-24T19:43:51.576Z,13.90
2023-05-24T19:46:21.032Z,13.30
2023-05-24T19:48:49.166Z,13.30
2023-05-24T19:51:17.275Z,12.10
2023-05-24T19:53:45.456Z,12.40
2023-05-24T19:56:13.595Z,13.50
2023-05-24T19:58:41.655Z,14.30
2023-05-24T20:01:09.698Z,11.60
2023-05-24T20:03:38.051Z,13.40
2023-05-24T20:06:06.193Z,14.20
2023-05-24T20:08:34.228Z,15.70
2023-05-24T20:11:02.967Z,13.00
2023-05-24T20:13:31.060Z,14.50
2023-05-24T20:15:59.186Z,14.50
2023-05-24T20:18:27.229Z,14.70
2023-05-24T20:20:55.387Z,12.90
2023-05-24T20:23:27.499Z,14.10
2023-05-24T20:25:56.076Z,14.30
2023-05-24T20:28:31.337Z,14.10
2023-05-24T20:30:59.996Z,14.60
2023-05-24T20:33:28.116Z,14.40
2023-05-24T20:35:56.613Z,14.90
2023-05-24T20:38:24.742Z,13.60
2023-05-24T20:40:52.769Z,14.50
2023-05-24T20:43:20.750Z,14.90
2023-05-24T20:45:48.758Z,14.60
2023-05-24T20:48:16.852Z,15.10
2023-05-24T20:50:44.829Z,17.60
2023-05-24T20:53:12.830Z,14.60
2023-05-24T20:55:40.921Z,15.00
2023-05-24T20:58:09.349Z,14.20
2023-05-24T21:00:39.522Z,16.70
2023-05-24T21:03:08.230Z,18.20
2023-05-24T21:05:38.140Z,13.90
2023-05-24T21:08:06.478Z,13.90
2023-05-24T21:10:35.230Z,15.90
2023-05-24T21:13:03.205Z,17.10
2023-05-24T21:15:31.969Z,14.50
2023-05-24T21:18:00.013Z,13.60
2023-05-24T21:20:28.137Z,14.20
2023-05-24T21:22:56.300Z,14.40
2023-05-24T21:25:24.671Z,14.70
2023-05-24T21:27:52.754Z,13.70
2023-05-24T21:30:20.787Z,15.30
2023-05-24T21:32:48.708Z,12.40
2023-05-24T21:35:16.822Z,13.80
2023-05-24T21:37:44.856Z,14.30
2023-05-24T21:40:13.143Z,14.30
2023-05-24T21:42:41.129Z,13.30
2023-05-24T21:45:09.428Z,14.60
2023-05-24T21:47:37.455Z,14.40
2023-05-24T21:50:06.092Z,14.10
2023-05-24T21:52:34.186Z,14.10
2023-05-24T21:55:02.221Z,13.20
2023-05-24T21:57:30.257Z,14.70
2023-05-24T21:59:58.238Z,12.80
2023-05-24T22:02:26.772Z,14.50
2023-05-24T22:04:54.923Z,13.40
2023-05-24T22:07:22.916Z,7.60
2023-05-24T22:09:51.089Z,11.80
2023-05-24T22:12:19.644Z,13.80
2023-05-24T22:14:47.882Z,13.40
2023-05-24T22:17:16.517Z,13.60
2023-05-24T22:19:44.546Z,14.20
2023-05-24T22:22:12.708Z,13.10
2023-05-24T22:24:41.084Z,13.50
2023-05-24T22:27:13.993Z,12.50
2023-05-24T22:29:41.942Z,14.70
2023-05-24T22:32:09.881Z,12.20
2023-05-24T22:34:37.875Z,12.00
2023-05-24T22:37:05.963Z,13.80
2023-05-24T22:39:34.115Z,10.50
2023-05-24T22:42:02.346Z,12.90
2023-05-24T22:44:30.413Z,14.10
2023-05-24T22:46:58.436Z,13.40
2023-05-24T22:49:29.787Z,13.70
2023-05-24T22:51:57.906Z,14.20
2023-05-24T22:54:26.097Z,15.70
2023-05-24T22:56:54.123Z,15.80
2023-05-24T22:59:22.170Z,17.00
2023-05-24T23:01:50.351Z,13.30
2023-05-24T23:04:21.229Z,14.40
2023-05-24T23:06:52.917Z,15.70
2023-05-24T23:09:35.041Z,13.90
2023-05-24T23:12:08.032Z,13.40
2023-05-24T23:14:38.616Z,13.00
2023-05-24T23:17:07.010Z,14.90
2023-05-24T23:19:42.303Z,15.60
2023-05-24T23:22:13.901Z,12.10
2023-05-24T23:24:44.736Z,13.00
2023-05-24T23:27:12.757Z,13.30
2023-05-24T23:29:40.846Z,12.40
2023-05-24T23:32:08.987Z,14.50
2023-05-24T23:34:37.543Z,17.60
2023-05-24T23:37:06.230Z,14.90
2023-05-24T23:39:34.845Z,27.90
2023-05-24T23:42:03.879Z,14.30
2023-05-24T23:44:32.205Z,14.60
2023-05-24T23:47:01.655Z,14.60
2023-05-24T23:49:29.618Z,15.10
2023-05-24T23:51:57.712Z,13.40
2023-05-24T23:54:26.282Z,30.80
2023-05-24T23:56:54.277Z,29.20
2023-05-24T23:59:22.769Z,17.50
